createdAt,value
2018-01-28T00:00:53.567Z," 5.89"
2018-01-28T00:05:49.254Z," 5.89"
2018-01-28T00:10:45.528Z," 5.82"
2018-01-28T00:15:44.910Z," 5.97"
2018-01-28T00:20:39.844Z," 5.87"
2018-01-28T00:25:35.767Z," 5.86"
2018-01-28T00:30:36.469Z," 5.83"
2018-01-28T00:35:31.816Z," 5.83"
2018-01-28T00:40:27.227Z," 5.94"
2018-01-28T00:45:27.261Z," 5.87"
2018-01-28T00:50:26.049Z," 5.84"
2018-01-28T00:55:20.912Z," 5.94"
2018-01-28T01:00:20.694Z," 5.83"
2018-01-28T01:05:19.825Z," 5.89"
2018-01-28T01:10:15.983Z," 5.82"
2018-01-28T01:15:11.391Z," 5.98"
2018-01-28T01:20:07.267Z," 5.93"
2018-01-28T01:25:06.977Z," 5.94"
2018-01-28T01:30:01.665Z," 6.04"
2018-01-28T01:34:58.691Z," 6.24"
2018-01-28T01:39:54.300Z," 6.30"
2018-01-28T01:44:54.267Z," 6.33"
2018-01-28T01:49:49.228Z," 6.31"
2018-01-28T01:54:49.080Z," 6.31"
2018-01-28T01:59:47.988Z," 6.30"
2018-01-28T02:04:46.396Z," 6.42"
2018-01-28T02:09:45.216Z," 6.42"
2018-01-28T02:14:44.428Z," 6.42"
2018-01-28T02:19:43.294Z," 6.46"
2018-01-28T02:24:39.747Z," 6.46"
2018-01-28T02:29:35.101Z," 6.52"
2018-01-28T02:34:31.925Z," 6.54"
2018-01-28T02:39:31.356Z," 6.57"
2018-01-28T02:44:27.879Z," 6.54"
2018-01-28T02:49:24.301Z," 6.66"
2018-01-28T02:54:23.534Z," 6.63"
2018-01-28T02:59:22.645Z," 6.62"
2018-01-28T03:04:22.631Z," 6.64"
2018-01-28T03:09:17.162Z," 6.62"
2018-01-28T03:14:12.875Z," 6.75"
2018-01-28T03:19:14.307Z," 6.67"
2018-01-28T03:24:09.206Z," 6.81"
2018-01-28T03:34:09.877Z," 6.85"
2018-01-28T03:39:09.626Z," 6.81"
2018-01-28T03:44:09.062Z," 6.99"
2018-01-28T03:49:04.473Z," 7.02"
2018-01-28T03:54:01.264Z," 7.02"
2018-01-28T03:58:56.897Z," 6.95"
2018-01-28T04:03:54.683Z," 7.06"
2018-01-28T04:08:50.049Z," 7.07"
2018-01-28T04:13:46.701Z," 7.10"
2018-01-28T04:18:46.326Z," 7.20"
2018-01-28T04:23:40.900Z," 7.25"
2018-01-28T04:28:37.165Z," 7.21"
2018-01-28T04:33:32.827Z," 7.33"
2018-01-28T04:38:28.659Z," 7.29"
2018-01-28T04:43:29.509Z," 7.29"
2018-01-28T04:48:25.124Z," 7.32"
2018-01-28T04:53:21.561Z," 7.43"
2018-01-28T04:58:20.912Z," 7.48"
2018-01-28T05:03:19.789Z," 7.33"
2018-01-28T05:08:18.441Z," 7.40"
2018-01-28T05:13:13.507Z," 7.47"
2018-01-28T05:18:09.199Z," 7.47"
2018-01-28T05:23:08.743Z," 7.40"
2018-01-28T05:28:03.342Z," 7.48"
2018-01-28T05:33:03.252Z," 7.54"
2018-01-28T05:37:58.002Z," 7.47"
2018-01-28T05:42:53.916Z," 7.45"
2018-01-28T05:47:50.334Z," 7.43"
2018-01-28T05:52:49.695Z," 7.58"
2018-01-28T05:57:44.851Z," 7.54"
2018-01-28T06:02:44.576Z," 7.56"
2018-01-28T06:07:43.356Z," 7.61"
2018-01-28T06:12:39.373Z," 7.57"
2018-01-28T06:17:36.798Z," 7.66"
2018-01-28T06:22:33.109Z," 7.73"
2018-01-28T06:27:28.709Z," 7.70"
2018-01-28T06:32:29.326Z," 7.79"
2018-01-28T06:37:24.565Z," 7.66"
2018-01-28T06:42:25.301Z," 7.80"
2018-01-28T06:47:19.739Z," 7.77"
2018-01-28T06:52:20.127Z," 7.80"
2018-01-28T06:57:15.823Z," 7.77"
2018-01-28T07:02:11.281Z," 7.85"
2018-01-28T07:07:11.195Z," 7.85"
2018-01-28T07:12:06.124Z," 7.93"
2018-01-28T07:17:01.840Z," 8.05"
2018-01-28T07:21:57.761Z," 8.03"
2018-01-28T07:26:57.434Z," 8.03"
2018-01-28T07:31:52.293Z," 8.10"
2018-01-28T07:36:49.188Z," 8.13"
2018-01-28T07:41:44.972Z," 8.10"
2018-01-28T07:46:45.865Z," 8.23"
2018-01-28T07:51:41.329Z," 8.19"
2018-01-28T07:56:37.968Z," 8.23"
2018-01-28T08:01:34.587Z," 8.27"
2018-01-28T08:06:30.635Z," 8.31"
2018-01-28T08:11:26.384Z," 8.45"
2018-01-28T08:16:22.003Z," 8.41"
2018-01-28T08:21:17.726Z," 8.45"
2018-01-28T08:26:13.516Z," 8.52"
2018-01-28T08:31:14.850Z," 8.46"
2018-01-28T08:36:13.506Z," 8.48"
2018-01-28T08:41:09.246Z," 8.55"
2018-01-28T08:46:04.644Z," 8.51"
2018-01-28T08:51:00.641Z," 8.48"
2018-01-28T08:56:00.517Z," 8.60"
2018-01-28T09:00:55.499Z," 8.69"
2018-01-28T09:05:50.977Z," 8.76"
2018-01-28T09:10:46.750Z," 8.67"
2018-01-28T09:15:47.579Z," 8.78"
2018-01-28T09:20:42.462Z," 8.79"
2018-01-28T09:25:38.172Z," 8.84"
2018-01-28T09:30:39.400Z," 8.81"
2018-01-28T09:35:37.956Z," 8.85"
2018-01-28T09:40:32.968Z," 8.78"
2018-01-28T09:45:30.184Z," 8.91"
2018-01-28T09:50:25.803Z," 8.88"
2018-01-28T09:55:22.390Z," 8.94"
2018-01-28T10:00:18.941Z," 8.94"
2018-01-28T10:05:18.411Z," 8.99"
2018-01-28T10:10:15.427Z," 9.02"
2018-01-28T10:15:11.774Z," 9.00"
2018-01-28T10:20:11.409Z," 9.06"
2018-01-28T10:25:10.308Z," 9.19"
2018-01-28T10:30:05.202Z," 9.23"
2018-01-28T10:35:00.937Z," 9.26"
2018-01-28T10:39:57.656Z," 9.44"
2018-01-28T10:44:57.127Z," 9.41"
2018-01-28T10:49:57.145Z," 9.43"
2018-01-28T10:54:55.852Z," 9.54"
2018-01-28T10:59:54.400Z," 9.56"
2018-01-28T11:04:50.560Z," 9.54"
2018-01-28T11:09:46.241Z," 9.59"
2018-01-28T11:14:43.121Z," 9.58"
2018-01-28T11:19:38.798Z," 9.82"
2018-01-28T11:24:38.697Z," 9.95"
2018-01-28T11:29:33.987Z," 9.98"
2018-01-28T11:34:29.867Z,10.07
2018-01-28T11:39:30.476Z,10.20
2018-01-28T11:44:29.190Z,10.09
2018-01-28T11:49:28.208Z,10.09
2018-01-28T11:54:22.796Z,10.17
2018-01-28T11:59:19.986Z,10.17
2018-01-28T12:04:17.461Z,10.17
2018-01-28T12:09:16.799Z,10.17
2018-01-28T12:14:12.698Z,10.26
2018-01-28T12:19:09.223Z,10.30
2018-01-28T12:24:04.647Z,10.42
2018-01-28T12:29:05.720Z,10.42
2018-01-28T12:34:05.288Z,10.41
2018-01-28T12:38:59.944Z,10.44
2018-01-28T12:43:55.589Z,10.46
2018-01-28T12:48:51.326Z,10.46
2018-01-28T12:53:48.183Z,10.54
2018-01-28T12:58:43.856Z,10.68
2018-01-28T13:03:43.623Z,10.69
2018-01-28T13:08:38.718Z,10.69
2018-01-28T13:13:34.489Z,10.81
2018-01-28T13:18:34.741Z,10.74
2018-01-28T13:23:29.508Z,10.69
2018-01-28T13:28:29.241Z,10.75
2018-01-28T13:33:25.310Z,10.68
2018-01-28T13:38:22.818Z,10.72
2018-01-28T13:43:21.922Z,10.71
2018-01-28T13:48:21.451Z,10.81
2018-01-28T13:53:20.532Z,10.78
2018-01-28T13:58:16.524Z,10.89
2018-01-28T14:03:12.115Z,10.82
2018-01-28T14:08:08.857Z,10.93
2018-01-28T14:13:04.467Z,10.96
2018-01-28T14:18:03.885Z,11.07
2018-01-28T14:22:59.079Z,11.00
2018-01-28T14:27:55.446Z,11.02
2018-01-28T14:32:57.280Z,11.05
2018-01-28T14:37:55.773Z,11.02
2018-01-28T14:42:54.739Z,10.99
2018-01-28T14:47:50.921Z,10.97
2018-01-28T14:52:50.641Z,11.10
2018-01-28T14:57:46.281Z,11.04
2018-01-28T15:02:43.090Z,11.05
2018-01-28T15:07:39.660Z,11.10
2018-01-28T15:12:34.985Z,10.92
2018-01-28T15:17:30.637Z,10.89
2018-01-28T15:22:31.242Z,10.78
2018-01-28T15:27:25.682Z,10.84
2018-01-28T15:32:22.710Z,10.84
2018-01-28T15:37:18.307Z,10.76
2018-01-28T15:42:14.177Z,10.78
2018-01-28T15:47:10.563Z,10.82
2018-01-28T15:52:06.550Z,10.79
2018-01-28T15:57:06.207Z,10.81
2018-01-28T16:02:01.157Z,10.82
2018-01-28T16:07:01.646Z,10.84
2018-01-28T16:12:01.326Z,10.68
2018-01-28T16:16:56.827Z,10.59
2018-01-28T16:21:52.250Z,10.60
2018-01-28T16:26:52.950Z,10.53
2018-01-28T16:31:51.351Z,10.44
2018-01-28T16:36:51.176Z,10.40
2018-01-28T16:41:51.844Z,10.33
2018-01-28T16:46:51.222Z,10.30
2018-01-28T16:51:47.578Z,10.17
2018-01-28T17:01:48.205Z,10.22
2018-01-28T17:06:52.345Z,10.15
2018-01-28T17:11:52.658Z,10.26
2018-01-28T17:16:51.469Z,10.25
2018-01-28T17:21:50.974Z,10.13
2018-01-28T17:26:49.825Z,10.13
2018-01-28T17:31:48.461Z,10.25
2018-01-28T17:41:55.867Z,10.31
2018-01-28T17:46:55.128Z,10.35
2018-01-28T17:51:52.607Z,10.42
2018-01-28T17:56:51.830Z,10.46
2018-01-28T18:06:59.444Z,10.51
2018-01-28T18:11:55.701Z,10.51
2018-01-28T18:16:51.347Z,10.68
2018-01-28T18:21:52.242Z,10.79
2018-01-28T18:26:52.147Z,10.82
2018-01-28T18:31:51.073Z,10.74
2018-01-28T18:36:50.317Z,10.75
2018-01-28T18:41:49.263Z,10.87
2018-01-28T18:46:44.245Z,10.90
2018-01-28T18:51:45.108Z,10.89
2018-01-28T18:56:39.895Z,10.90
2018-01-28T19:01:39.675Z,10.97
2018-01-28T19:06:38.585Z,10.90
2018-01-28T19:11:39.078Z,11.00
2018-01-28T19:16:39.741Z,11.00
2018-01-28T19:21:38.043Z,11.05
2018-01-28T19:26:37.482Z,11.05
2018-01-28T19:31:36.416Z,11.05
2018-01-28T19:36:36.608Z,11.11
2018-01-28T19:41:36.240Z,11.15
2018-01-28T19:46:34.939Z,11.17
2018-01-28T19:51:34.045Z,11.19
2018-01-28T19:56:30.003Z,11.19
2018-01-28T20:01:25.506Z,11.18
2018-01-28T20:06:25.112Z,11.26
2018-01-28T20:11:25.460Z,11.30
2018-01-28T20:16:21.270Z,11.33
2018-01-28T20:21:20.554Z,11.30
2018-01-28T20:26:19.434Z,11.29
2018-01-28T20:31:14.644Z,11.35
2018-01-28T20:36:15.004Z,11.33
2018-01-28T20:41:09.882Z,11.33
2018-01-28T20:46:05.416Z,11.19
2018-01-28T20:51:05.181Z,11.11
2018-01-28T20:56:00.630Z,11.02
2018-01-28T21:01:01.902Z,11.02
2018-01-28T21:06:00.975Z,10.97
2018-01-28T21:11:00.710Z,10.89
2018-01-28T21:15:59.292Z,10.90
2018-01-28T21:20:58.690Z,10.92
2018-01-28T21:25:54.720Z,10.90
2018-01-28T21:30:54.329Z,10.81
2018-01-28T21:35:54.063Z,10.75
2018-01-28T21:40:53.725Z,10.78
2018-01-28T21:45:49.102Z,10.74
2018-01-28T21:50:48.934Z,10.75
2018-01-28T21:55:47.676Z,10.82
2018-01-28T22:00:47.212Z,10.86
2018-01-28T22:05:45.962Z,10.69
2018-01-28T22:10:45.902Z,10.86
2018-01-28T22:15:40.543Z,10.84
2018-01-28T22:20:41.549Z,10.75
2018-01-28T22:25:40.360Z,10.72
2018-01-28T22:30:40.587Z,10.78
2018-01-28T22:35:40.168Z,10.78
2018-01-28T22:40:39.925Z,10.82
2018-01-28T22:45:39.817Z,10.92
2018-01-28T22:50:34.600Z,10.93
2018-01-28T22:55:30.482Z,10.97
2018-01-28T23:00:31.689Z,11.10
2018-01-28T23:05:26.517Z,11.04
2018-01-28T23:10:26.443Z,11.14
2018-01-28T23:15:25.416Z,11.02
2018-01-28T23:20:21.704Z,11.05
2018-01-28T23:25:17.355Z,10.96
2018-01-28T23:30:12.928Z,10.99
2018-01-28T23:35:09.926Z,10.93
2018-01-28T23:40:08.292Z,11.04
2018-01-28T23:45:03.618Z,11.07
2018-01-28T23:49:59.541Z,10.97
2018-01-28T23:54:57.827Z,10.90
2018-01-28T23:59:57.955Z,10.96
